sensor_id;sensor_type;location;lat;lon;timestamp;temperature;humidity
11136;DHT22;5622;50.840;4.948;2022-07-10T00:01:32;15.90;99.10
11136;DHT22;5622;50.840;4.948;2022-07-10T00:03:59;15.90;99.30
11136;DHT22;5622;50.840;4.948;2022-07-10T00:06:26;15.80;99.30
11136;DHT22;5622;50.840;4.948;2022-07-10T00:08:53;15.90;99.50
11136;DHT22;5622;50.840;4.948;2022-07-10T00:11:21;15.80;99.60
11136;DHT22;5622;50.840;4.948;2022-07-10T00:13:48;15.80;99.50
11136;DHT22;5622;50.840;4.948;2022-07-10T00:16:15;15.70;99.60
11136;DHT22;5622;50.840;4.948;2022-07-10T00:18:43;15.80;99.80
11136;DHT22;5622;50.840;4.948;2022-07-10T00:21:10;15.70;99.80
11136;DHT22;5622;50.840;4.948;2022-07-10T00:23:37;15.60;99.90
11136;DHT22;5622;50.840;4.948;2022-07-10T00:26:04;15.60;99.90
11136;DHT22;5622;50.840;4.948;2022-07-10T00:28:31;15.60;99.90
11136;DHT22;5622;50.840;4.948;2022-07-10T00:30:59;15.60;99.90
11136;DHT22;5622;50.840;4.948;2022-07-10T00:33:26;15.50;99.90
11136;DHT22;5622;50.840;4.948;2022-07-10T00:35:55;15.60;99.90
11136;DHT22;5622;50.840;4.948;2022-07-10T00:38:22;15.60;99.90
11136;DHT22;5622;50.840;4.948;2022-07-10T00:40:49;15.50;99.90
11136;DHT22;5622;50.840;4.948;2022-07-10T00:43:16;15.50;99.90
11136;DHT22;5622;50.840;4.948;2022-07-10T00:45:43;15.60;99.90
11136;DHT22;5622;50.840;4.948;2022-07-10T00:48:10;15.50;99.90
11136;DHT22;5622;50.840;4.948;2022-07-10T00:50:38;15.50;99.90
11136;DHT22;5622;50.840;4.948;2022-07-10T00:53:06;15.40;99.90
11136;DHT22;5622;50.840;4.948;2022-07-10T00:55:35;15.40;99.90
11136;DHT22;5622;50.840;4.948;2022-07-10T00:58:05;15.40;99.90
11136;DHT22;5622;50.840;4.948;2022-07-10T01:00:34;15.40;99.90
11136;DHT22;5622;50.840;4.948;2022-07-10T01:03:03;15.40;99.90
11136;DHT22;5622;50.840;4.948;2022-07-10T01:05:31;15.40;99.90
11136;DHT22;5622;50.840;4.948;2022-07-10T01:07:58;15.40;99.90
11136;DHT22;5622;50.840;4.948;2022-07-10T01:10:27;15.40;99.90
11136;DHT22;5622;50.840;4.948;2022-07-10T01:12:54;15.40;99.90
11136;DHT22;5622;50.840;4.948;2022-07-10T01:15:21;15.40;99.90
11136;DHT22;5622;50.840;4.948;2022-07-10T01:17:48;15.40;99.90
11136;DHT22;5622;50.840;4.948;2022-07-10T01:20:18;15.30;99.90
11136;DHT22;5622;50.840;4.948;2022-07-10T01:22:47;15.30;99.90
11136;DHT22;5622;50.840;4.948;2022-07-10T01:25:14;15.20;99.90
11136;DHT22;5622;50.840;4.948;2022-07-10T01:27:41;15.10;99.90
11136;DHT22;5622;50.840;4.948;2022-07-10T01:30:10;15.10;99.90
11136;DHT22;5622;50.840;4.948;2022-07-10T01:32:38;15.10;99.90
11136;DHT22;5622;50.840;4.948;2022-07-10T01:35:06;15.00;99.90
11136;DHT22;5622;50.840;4.948;2022-07-10T01:37:33;15.00;99.90
11136;DHT22;5622;50.840;4.948;2022-07-10T01:40:03;15.00;99.90
11136;DHT22;5622;50.840;4.948;2022-07-10T01:42:30;15.00;99.90
11136;DHT22;5622;50.840;4.948;2022-07-10T01:44:57;15.00;99.90
11136;DHT22;5622;50.840;4.948;2022-07-10T01:47:24;14.90;99.90
11136;DHT22;5622;50.840;4.948;2022-07-10T01:49:53;15.00;99.90
11136;DHT22;5622;50.840;4.948;2022-07-10T01:52:20;15.00;99.90
11136;DHT22;5622;50.840;4.948;2022-07-10T01:54:48;14.90;99.90
11136;DHT22;5622;50.840;4.948;2022-07-10T01:57:16;14.90;99.90
11136;DHT22;5622;50.840;4.948;2022-07-10T01:59:44;14.80;99.90
11136;DHT22;5622;50.840;4.948;2022-07-10T02:02:11;14.80;99.90
11136;DHT22;5622;50.840;4.948;2022-07-10T02:04:38;14.80;99.90
11136;DHT22;5622;50.840;4.948;2022-07-10T02:07:07;14.80;99.90
11136;DHT22;5622;50.840;4.948;2022-07-10T02:09:34;14.90;99.90
11136;DHT22;5622;50.840;4.948;2022-07-10T02:12:02;14.80;99.90
11136;DHT22;5622;50.840;4.948;2022-07-10T02:14:30;14.80;99.90
11136;DHT22;5622;50.840;4.948;2022-07-10T02:16:57;14.80;99.90
11136;DHT22;5622;50.840;4.948;2022-07-10T02:19:25;14.80;99.90
11136;DHT22;5622;50.840;4.948;2022-07-10T02:21:52;14.80;99.90
11136;DHT22;5622;50.840;4.948;2022-07-10T02:24:19;14.80;99.90
11136;DHT22;5622;50.840;4.948;2022-07-10T02:26:46;14.80;99.90
11136;DHT22;5622;50.840;4.948;2022-07-10T02:29:13;14.70;99.90
11136;DHT22;5622;50.840;4.948;2022-07-10T02:31:41;14.60;99.90
11136;DHT22;5622;50.840;4.948;2022-07-10T02:34:09;14.60;99.90
11136;DHT22;5622;50.840;4.948;2022-07-10T02:36:37;14.50;99.90
11136;DHT22;5622;50.840;4.948;2022-07-10T02:39:04;14.40;99.90
11136;DHT22;5622;50.840;4.948;2022-07-10T02:41:31;14.40;99.90
11136;DHT22;5622;50.840;4.948;2022-07-10T02:43:59;14.30;99.90
11136;DHT22;5622;50.840;4.948;2022-07-10T02:46:26;14.30;99.90
11136;DHT22;5622;50.840;4.948;2022-07-10T02:48:55;14.30;99.90
11136;DHT22;5622;50.840;4.948;2022-07-10T02:51:22;14.30;99.90
11136;DHT22;5622;50.840;4.948;2022-07-10T02:53:49;14.30;99.90
11136;DHT22;5622;50.840;4.948;2022-07-10T02:56:16;14.30;99.90
11136;DHT22;5622;50.840;4.948;2022-07-10T02:58:43;14.30;99.90
11136;DHT22;5622;50.840;4.948;2022-07-10T03:01:10;14.30;99.90
11136;DHT22;5622;50.840;4.948;2022-07-10T03:03:37;14.30;99.90
11136;DHT22;5622;50.840;4.948;2022-07-10T03:06:06;14.30;99.90
11136;DHT22;5622;50.840;4.948;2022-07-10T03:08:33;14.20;99.90
11136;DHT22;5622;50.840;4.948;2022-07-10T03:11:00;14.20;99.90
11136;DHT22;5622;50.840;4.948;2022-07-10T03:13:27;14.20;99.90
11136;DHT22;5622;50.840;4.948;2022-07-10T03:15:54;14.20;99.90
11136;DHT22;5622;50.840;4.948;2022-07-10T03:18:21;14.20;99.90
11136;DHT22;5622;50.840;4.948;2022-07-10T03:20:48;14.20;99.90
11136;DHT22;5622;50.840;4.948;2022-07-10T03:23:17;14.20;99.90
11136;DHT22;5622;50.840;4.948;2022-07-10T03:25:44;14.20;99.90
11136;DHT22;5622;50.840;4.948;2022-07-10T03:28:11;14.30;99.90
11136;DHT22;5622;50.840;4.948;2022-07-10T03:30:38;14.30;99.90
11136;DHT22;5622;50.840;4.948;2022-07-10T03:33:05;14.30;99.90
11136;DHT22;5622;50.840;4.948;2022-07-10T03:35:33;14.20;99.90
11136;DHT22;5622;50.840;4.948;2022-07-10T03:38:00;14.30;99.90
11136;DHT22;5622;50.840;4.948;2022-07-10T03:40:29;14.30;99.90
11136;DHT22;5622;50.840;4.948;2022-07-10T03:42:56;14.20;99.90
11136;DHT22;5622;50.840;4.948;2022-07-10T03:45:23;14.20;99.90
11136;DHT22;5622;50.840;4.948;2022-07-10T03:47:50;14.20;99.90
11136;DHT22;5622;50.840;4.948;2022-07-10T03:50:17;14.20;99.90
11136;DHT22;5622;50.840;4.948;2022-07-10T03:52:45;14.20;99.90
11136;DHT22;5622;50.840;4.948;2022-07-10T03:55:12;14.20;99.90
11136;DHT22;5622;50.840;4.948;2022-07-10T03:57:40;14.20;99.90
11136;DHT22;5622;50.840;4.948;2022-07-10T04:00:23;14.20;99.90
11136;DHT22;5622;50.840;4.948;2022-07-10T04:02:55;14.20;99.90
11136;DHT22;5622;50.840;4.948;2022-07-10T04:05:23;14.20;99.90
11136;DHT22;5622;50.840;4.948;2022-07-10T04:07:50;14.20;99.90
11136;DHT22;5622;50.840;4.948;2022-07-10T04:10:18;14.20;99.90
11136;DHT22;5622;50.840;4.948;2022-07-10T04:12:46;14.20;99.90
11136;DHT22;5622;50.840;4.948;2022-07-10T04:15:14;14.10;99.90
11136;DHT22;5622;50.840;4.948;2022-07-10T04:17:42;14.10;99.90
11136;DHT22;5622;50.840;4.948;2022-07-10T04:20:10;14.20;99.90
11136;DHT22;5622;50.840;4.948;2022-07-10T04:22:37;14.20;99.90
11136;DHT22;5622;50.840;4.948;2022-07-10T04:25:05;14.20;99.90
11136;DHT22;5622;50.840;4.948;2022-07-10T04:27:32;14.20;99.90
11136;DHT22;5622;50.840;4.948;2022-07-10T04:30:01;14.20;99.90
11136;DHT22;5622;50.840;4.948;2022-07-10T04:32:28;14.10;99.90
11136;DHT22;5622;50.840;4.948;2022-07-10T04:34:55;14.10;99.90
11136;DHT22;5622;50.840;4.948;2022-07-10T04:37:22;14.20;99.90
11136;DHT22;5622;50.840;4.948;2022-07-10T04:39:50;14.10;99.90
11136;DHT22;5622;50.840;4.948;2022-07-10T04:42:17;14.10;99.90
11136;DHT22;5622;50.840;4.948;2022-07-10T04:44:44;14.20;99.90
11136;DHT22;5622;50.840;4.948;2022-07-10T04:47:12;14.20;99.90
11136;DHT22;5622;50.840;4.948;2022-07-10T04:49:39;14.20;99.90
11136;DHT22;5622;50.840;4.948;2022-07-10T04:52:06;14.20;99.90
11136;DHT22;5622;50.840;4.948;2022-07-10T04:54:34;14.30;99.90
11136;DHT22;5622;50.840;4.948;2022-07-10T04:57:01;14.30;99.90
11136;DHT22;5622;50.840;4.948;2022-07-10T04:59:28;14.40;99.90
11136;DHT22;5622;50.840;4.948;2022-07-10T05:01:55;14.40;99.90
11136;DHT22;5622;50.840;4.948;2022-07-10T05:04:23;14.80;99.90
11136;DHT22;5622;50.840;4.948;2022-07-10T05:06:50;14.40;99.90
11136;DHT22;5622;50.840;4.948;2022-07-10T05:09:18;14.50;99.90
11136;DHT22;5622;50.840;4.948;2022-07-10T05:11:45;14.50;99.90
11136;DHT22;5622;50.840;4.948;2022-07-10T05:14:13;14.50;99.90
11136;DHT22;5622;50.840;4.948;2022-07-10T05:16:40;14.60;99.90
11136;DHT22;5622;50.840;4.948;2022-07-10T05:19:07;14.60;99.90
11136;DHT22;5622;50.840;4.948;2022-07-10T05:21:35;14.60;99.90
11136;DHT22;5622;50.840;4.948;2022-07-10T05:24:03;14.70;99.90
11136;DHT22;5622;50.840;4.948;2022-07-10T05:26:30;14.70;99.90
11136;DHT22;5622;50.840;4.948;2022-07-10T05:28:57;14.70;99.90
11136;DHT22;5622;50.840;4.948;2022-07-10T05:31:24;14.70;99.90
11136;DHT22;5622;50.840;4.948;2022-07-10T05:33:51;14.80;99.90
11136;DHT22;5622;50.840;4.948;2022-07-10T05:36:18;14.80;99.90
11136;DHT22;5622;50.840;4.948;2022-07-10T05:39:16;14.90;99.90
11136;DHT22;5622;50.840;4.948;2022-07-10T05:41:48;14.90;99.90
11136;DHT22;5622;50.840;4.948;2022-07-10T05:44:27;14.90;99.90
11136;DHT22;5622;50.840;4.948;2022-07-10T05:46:54;15.00;99.90
11136;DHT22;5622;50.840;4.948;2022-07-10T05:49:23;15.00;99.90
11136;DHT22;5622;50.840;4.948;2022-07-10T05:51:51;15.00;99.90
11136;DHT22;5622;50.840;4.948;2022-07-10T05:54:21;15.10;99.90
11136;DHT22;5622;50.840;4.948;2022-07-10T05:56:50;15.00;99.90
11136;DHT22;5622;50.840;4.948;2022-07-10T05:59:23;15.10;99.90
11136;DHT22;5622;50.840;4.948;2022-07-10T06:01:59;15.10;99.90
11136;DHT22;5622;50.840;4.948;2022-07-10T06:04:27;15.10;99.90
11136;DHT22;5622;50.840;4.948;2022-07-10T06:06:54;15.10;99.90
11136;DHT22;5622;50.840;4.948;2022-07-10T06:09:23;15.10;99.90
11136;DHT22;5622;50.840;4.948;2022-07-10T06:11:50;15.20;99.90
11136;DHT22;5622;50.840;4.948;2022-07-10T06:14:17;15.20;99.90
11136;DHT22;5622;50.840;4.948;2022-07-10T06:16:45;15.30;99.90
11136;DHT22;5622;50.840;4.948;2022-07-10T06:19:12;15.40;99.90
11136;DHT22;5622;50.840;4.948;2022-07-10T06:21:39;15.40;99.90
11136;DHT22;5622;50.840;4.948;2022-07-10T06:24:06;15.50;99.90
11136;DHT22;5622;50.840;4.948;2022-07-10T06:26:35;15.50;99.90
11136;DHT22;5622;50.840;4.948;2022-07-10T06:29:02;15.50;99.90
11136;DHT22;5622;50.840;4.948;2022-07-10T06:31:29;15.60;99.90
11136;DHT22;5622;50.840;4.948;2022-07-10T06:33:56;15.70;99.90
11136;DHT22;5622;50.840;4.948;2022-07-10T06:36:23;15.80;99.90
11136;DHT22;5622;50.840;4.948;2022-07-10T06:38:50;15.90;99.90
11136;DHT22;5622;50.840;4.948;2022-07-10T06:41:17;15.90;99.90
11136;DHT22;5622;50.840;4.948;2022-07-10T06:43:46;16.00;99.90
11136;DHT22;5622;50.840;4.948;2022-07-10T06:46:13;16.10;99.90
11136;DHT22;5622;50.840;4.948;2022-07-10T06:48:40;16.20;99.90
11136;DHT22;5622;50.840;4.948;2022-07-10T06:51:06;16.30;99.90
11136;DHT22;5622;50.840;4.948;2022-07-10T06:53:33;16.40;99.90
11136;DHT22;5622;50.840;4.948;2022-07-10T06:56:01;16.40;99.90
11136;DHT22;5622;50.840;4.948;2022-07-10T06:58:28;16.40;99.90
11136;DHT22;5622;50.840;4.948;2022-07-10T07:00:56;16.50;99.90
11136;DHT22;5622;50.840;4.948;2022-07-10T07:03:24;16.60;99.90
11136;DHT22;5622;50.840;4.948;2022-07-10T07:05:51;16.60;99.90
11136;DHT22;5622;50.840;4.948;2022-07-10T07:08:18;16.80;99.90
11136;DHT22;5622;50.840;4.948;2022-07-10T07:10:45;16.90;99.90
11136;DHT22;5622;50.840;4.948;2022-07-10T07:13:12;17.00;99.90
11136;DHT22;5622;50.840;4.948;2022-07-10T07:15:39;17.10;99.90
11136;DHT22;5622;50.840;4.948;2022-07-10T07:18:13;17.20;99.90
11136;DHT22;5622;50.840;4.948;2022-07-10T07:20:41;17.30;99.90
11136;DHT22;5622;50.840;4.948;2022-07-10T07:23:26;17.40;99.90
11136;DHT22;5622;50.840;4.948;2022-07-10T07:25:53;17.40;99.90
11136;DHT22;5622;50.840;4.948;2022-07-10T07:28:21;17.50;99.90
11136;DHT22;5622;50.840;4.948;2022-07-10T07:30:48;17.50;99.90
11136;DHT22;5622;50.840;4.948;2022-07-10T07:33:17;17.50;99.90
11136;DHT22;5622;50.840;4.948;2022-07-10T07:35:44;17.60;99.90
11136;DHT22;5622;50.840;4.948;2022-07-10T07:38:11;17.70;99.90
11136;DHT22;5622;50.840;4.948;2022-07-10T07:40:38;17.80;99.90
11136;DHT22;5622;50.840;4.948;2022-07-10T07:43:05;18.00;99.90
11136;DHT22;5622;50.840;4.948;2022-07-10T07:45:33;18.10;99.90
11136;DHT22;5622;50.840;4.948;2022-07-10T07:48:00;18.30;99.90
11136;DHT22;5622;50.840;4.948;2022-07-10T07:50:31;18.40;99.90
11136;DHT22;5622;50.840;4.948;2022-07-10T07:52:59;18.60;99.90
11136;DHT22;5622;50.840;4.948;2022-07-10T07:55:27;18.90;99.90
11136;DHT22;5622;50.840;4.948;2022-07-10T07:57:55;19.10;99.90
11136;DHT22;5622;50.840;4.948;2022-07-10T08:00:23;19.40;99.90
11136;DHT22;5622;50.840;4.948;2022-07-10T08:02:52;19.60;99.90
11136;DHT22;5622;50.840;4.948;2022-07-10T08:05:19;19.80;99.90
11136;DHT22;5622;50.840;4.948;2022-07-10T08:07:50;20.10;98.80
11136;DHT22;5622;50.840;4.948;2022-07-10T08:10:19;20.30;98.80
11136;DHT22;5622;50.840;4.948;2022-07-10T08:12:47;20.50;96.90
11136;DHT22;5622;50.840;4.948;2022-07-10T08:15:16;20.60;99.10
11136;DHT22;5622;50.840;4.948;2022-07-10T08:17:47;20.80;98.60
11136;DHT22;5622;50.840;4.948;2022-07-10T08:20:14;21.00;98.50
11136;DHT22;5622;50.840;4.948;2022-07-10T08:22:42;21.20;97.80
11136;DHT22;5622;50.840;4.948;2022-07-10T08:25:11;21.20;97.40
11136;DHT22;5622;50.840;4.948;2022-07-10T08:27:38;21.30;95.20
11136;DHT22;5622;50.840;4.948;2022-07-10T08:30:07;21.30;94.50
11136;DHT22;5622;50.840;4.948;2022-07-10T08:32:35;21.40;94.90
11136;DHT22;5622;50.840;4.948;2022-07-10T08:35:03;21.40;94.40
11136;DHT22;5622;50.840;4.948;2022-07-10T08:37:31;21.50;94.80
11136;DHT22;5622;50.840;4.948;2022-07-10T08:40:04;21.60;94.50
11136;DHT22;5622;50.840;4.948;2022-07-10T08:42:33;21.80;93.50
11136;DHT22;5622;50.840;4.948;2022-07-10T08:45:00;21.70;94.50
11136;DHT22;5622;50.840;4.948;2022-07-10T08:47:27;21.90;93.90
11136;DHT22;5622;50.840;4.948;2022-07-10T08:49:57;22.00;93.00
11136;DHT22;5622;50.840;4.948;2022-07-10T08:52:27;22.00;92.20
11136;DHT22;5622;50.840;4.948;2022-07-10T08:54:59;22.10;92.50
11136;DHT22;5622;50.840;4.948;2022-07-10T08:57:26;21.90;91.90
11136;DHT22;5622;50.840;4.948;2022-07-10T08:59:56;21.70;93.30
11136;DHT22;5622;50.840;4.948;2022-07-10T09:02:24;21.70;94.80
11136;DHT22;5622;50.840;4.948;2022-07-10T09:04:51;21.90;92.90
11136;DHT22;5622;50.840;4.948;2022-07-10T09:07:18;21.60;92.80
11136;DHT22;5622;50.840;4.948;2022-07-10T09:09:52;21.50;94.20
11136;DHT22;5622;50.840;4.948;2022-07-10T09:12:20;21.40;93.30
11136;DHT22;5622;50.840;4.948;2022-07-10T09:14:48;21.30;94.20
11136;DHT22;5622;50.840;4.948;2022-07-10T09:17:17;21.10;93.80
11136;DHT22;5622;50.840;4.948;2022-07-10T09:19:44;21.00;94.20
11136;DHT22;5622;50.840;4.948;2022-07-10T09:22:12;20.90;94.20
11136;DHT22;5622;50.840;4.948;2022-07-10T09:24:42;21.00;95.00
11136;DHT22;5622;50.840;4.948;2022-07-10T09:27:11;20.90;94.90
11136;DHT22;5622;50.840;4.948;2022-07-10T09:29:46;21.00;95.10
11136;DHT22;5622;50.840;4.948;2022-07-10T09:32:16;21.10;95.70
11136;DHT22;5622;50.840;4.948;2022-07-10T09:34:45;21.00;93.50
11136;DHT22;5622;50.840;4.948;2022-07-10T09:37:22;20.80;94.60
11136;DHT22;5622;50.840;4.948;2022-07-10T09:39:59;20.90;95.10
11136;DHT22;5622;50.840;4.948;2022-07-10T09:42:30;20.90;95.30
11136;DHT22;5622;50.840;4.948;2022-07-10T09:45:14;20.80;94.40
11136;DHT22;5622;50.840;4.948;2022-07-10T09:47:44;20.60;94.90
11136;DHT22;5622;50.840;4.948;2022-07-10T09:50:23;20.60;94.70
11136;DHT22;5622;50.840;4.948;2022-07-10T09:52:52;20.70;95.70
11136;DHT22;5622;50.840;4.948;2022-07-10T09:55:21;20.90;96.30
11136;DHT22;5622;50.840;4.948;2022-07-10T09:57:53;21.10;94.50
11136;DHT22;5622;50.840;4.948;2022-07-10T10:00:23;21.20;96.40
11136;DHT22;5622;50.840;4.948;2022-07-10T10:02:56;21.30;95.60
11136;DHT22;5622;50.840;4.948;2022-07-10T10:05:36;21.30;95.00
11136;DHT22;5622;50.840;4.948;2022-07-10T10:08:11;21.20;94.60
11136;DHT22;5622;50.840;4.948;2022-07-10T10:10:43;21.10;94.90
11136;DHT22;5622;50.840;4.948;2022-07-10T10:13:11;21.20;95.70
11136;DHT22;5622;50.840;4.948;2022-07-10T10:15:40;21.30;95.80
11136;DHT22;5622;50.840;4.948;2022-07-10T10:18:11;21.30;96.00
11136;DHT22;5622;50.840;4.948;2022-07-10T10:20:40;21.30;95.30
11136;DHT22;5622;50.840;4.948;2022-07-10T10:23:10;21.40;95.50
11136;DHT22;5622;50.840;4.948;2022-07-10T10:25:40;21.30;95.50
11136;DHT22;5622;50.840;4.948;2022-07-10T10:28:09;21.30;95.20
11136;DHT22;5622;50.840;4.948;2022-07-10T10:30:37;21.30;95.60
11136;DHT22;5622;50.840;4.948;2022-07-10T10:36:10;21.30;96.00
11136;DHT22;5622;50.840;4.948;2022-07-10T10:39:02;21.30;96.00
11136;DHT22;5622;50.840;4.948;2022-07-10T10:41:30;21.20;94.70
11136;DHT22;5622;50.840;4.948;2022-07-10T10:44:31;21.10;95.40
11136;DHT22;5622;50.840;4.948;2022-07-10T10:47:05;21.10;95.40
11136;DHT22;5622;50.840;4.948;2022-07-10T10:49:53;21.00;95.50
11136;DHT22;5622;50.840;4.948;2022-07-10T10:52:23;21.00;95.20
11136;DHT22;5622;50.840;4.948;2022-07-10T10:55:02;20.90;95.30
11136;DHT22;5622;50.840;4.948;2022-07-10T10:57:40;20.90;95.50
11136;DHT22;5622;50.840;4.948;2022-07-10T11:00:14;20.80;95.90
11136;DHT22;5622;50.840;4.948;2022-07-10T11:02:42;20.80;96.10
11136;DHT22;5622;50.840;4.948;2022-07-10T11:05:39;20.90;96.20
11136;DHT22;5622;50.840;4.948;2022-07-10T11:08:12;20.90;95.80
11136;DHT22;5622;50.840;4.948;2022-07-10T11:10:41;20.80;96.20
11136;DHT22;5622;50.840;4.948;2022-07-10T11:13:10;20.80;95.40
11136;DHT22;5622;50.840;4.948;2022-07-10T11:15:40;20.80;95.70
11136;DHT22;5622;50.840;4.948;2022-07-10T11:18:11;20.80;96.00
11136;DHT22;5622;50.840;4.948;2022-07-10T11:20:39;20.80;96.30
11136;DHT22;5622;50.840;4.948;2022-07-10T11:26:24;20.80;97.20
11136;DHT22;5622;50.840;4.948;2022-07-10T11:28:55;20.90;96.90
11136;DHT22;5622;50.840;4.948;2022-07-10T11:31:23;20.90;96.70
11136;DHT22;5622;50.840;4.948;2022-07-10T11:33:52;20.90;96.60
11136;DHT22;5622;50.840;4.948;2022-07-10T11:36:21;21.00;96.80
11136;DHT22;5622;50.840;4.948;2022-07-10T11:38:56;21.00;97.50
11136;DHT22;5622;50.840;4.948;2022-07-10T11:41:27;21.10;97.20
11136;DHT22;5622;50.840;4.948;2022-07-10T11:43:55;21.10;97.50
11136;DHT22;5622;50.840;4.948;2022-07-10T11:46:25;21.20;97.30
11136;DHT22;5622;50.840;4.948;2022-07-10T11:48:52;21.30;97.20
11136;DHT22;5622;50.840;4.948;2022-07-10T11:51:25;21.30;97.10
11136;DHT22;5622;50.840;4.948;2022-07-10T11:53:54;21.40;96.40
11136;DHT22;5622;50.840;4.948;2022-07-10T11:56:21;21.50;96.10
11136;DHT22;5622;50.840;4.948;2022-07-10T11:58:57;21.50;95.40
11136;DHT22;5622;50.840;4.948;2022-07-10T12:01:25;21.50;95.80
11136;DHT22;5622;50.840;4.948;2022-07-10T12:03:59;21.50;95.70
11136;DHT22;5622;50.840;4.948;2022-07-10T12:06:28;21.50;95.90
11136;DHT22;5622;50.840;4.948;2022-07-10T12:08:56;21.60;96.20
11136;DHT22;5622;50.840;4.948;2022-07-10T12:11:29;21.60;96.80
11136;DHT22;5622;50.840;4.948;2022-07-10T12:14:11;20.90;96.80
11136;DHT22;5622;50.840;4.948;2022-07-10T12:16:40;21.70;96.50
11136;DHT22;5622;50.840;4.948;2022-07-10T12:19:12;21.70;96.10
11136;DHT22;5622;50.840;4.948;2022-07-10T12:21:42;21.60;96.10
11136;DHT22;5622;50.840;4.948;2022-07-10T12:24:10;21.60;96.30
11136;DHT22;5622;50.840;4.948;2022-07-10T12:26:38;21.70;95.90
11136;DHT22;5622;50.840;4.948;2022-07-10T12:29:05;21.60;96.00
11136;DHT22;5622;50.840;4.948;2022-07-10T12:31:36;21.60;96.10
11136;DHT22;5622;50.840;4.948;2022-07-10T12:34:05;21.70;96.50
11136;DHT22;5622;50.840;4.948;2022-07-10T12:36:46;21.80;96.00
11136;DHT22;5622;50.840;4.948;2022-07-10T12:39:15;21.70;95.00
11136;DHT22;5622;50.840;4.948;2022-07-10T12:41:56;21.70;95.60
11136;DHT22;5622;50.840;4.948;2022-07-10T12:44:44;21.70;96.20
11136;DHT22;5622;50.840;4.948;2022-07-10T12:47:15;21.70;96.90
11136;DHT22;5622;50.840;4.948;2022-07-10T12:49:53;21.70;96.80
11136;DHT22;5622;50.840;4.948;2022-07-10T12:52:21;21.60;96.20
11136;DHT22;5622;50.840;4.948;2022-07-10T12:55:04;21.70;96.30
11136;DHT22;5622;50.840;4.948;2022-07-10T12:57:31;21.60;96.40
11136;DHT22;5622;50.840;4.948;2022-07-10T13:00:03;21.70;96.40
11136;DHT22;5622;50.840;4.948;2022-07-10T13:02:33;21.70;95.50
11136;DHT22;5622;50.840;4.948;2022-07-10T13:05:00;21.70;95.20
11136;DHT22;5622;50.840;4.948;2022-07-10T13:07:30;21.70;95.50
11136;DHT22;5622;50.840;4.948;2022-07-10T13:09:59;21.60;95.90
11136;DHT22;5622;50.840;4.948;2022-07-10T13:12:27;21.60;96.00
11136;DHT22;5622;50.840;4.948;2022-07-10T13:14:54;21.60;96.50
11136;DHT22;5622;50.840;4.948;2022-07-10T13:17:21;21.60;96.50
11136;DHT22;5622;50.840;4.948;2022-07-10T13:19:50;21.60;96.00
11136;DHT22;5622;50.840;4.948;2022-07-10T13:22:17;21.60;97.00
11136;DHT22;5622;50.840;4.948;2022-07-10T13:24:45;21.70;97.00
11136;DHT22;5622;50.840;4.948;2022-07-10T13:27:12;21.70;96.00
11136;DHT22;5622;50.840;4.948;2022-07-10T13:29:39;21.70;95.60
11136;DHT22;5622;50.840;4.948;2022-07-10T13:32:07;21.70;96.20
11136;DHT22;5622;50.840;4.948;2022-07-10T13:34:34;21.70;96.70
11136;DHT22;5622;50.840;4.948;2022-07-10T13:37:03;21.70;96.60
11136;DHT22;5622;50.840;4.948;2022-07-10T13:39:31;21.70;96.40
11136;DHT22;5622;50.840;4.948;2022-07-10T13:41:58;21.70;96.30
11136;DHT22;5622;50.840;4.948;2022-07-10T13:44:26;21.80;96.40
11136;DHT22;5622;50.840;4.948;2022-07-10T13:46:53;21.80;96.80
11136;DHT22;5622;50.840;4.948;2022-07-10T13:49:20;21.80;96.60
11136;DHT22;5622;50.840;4.948;2022-07-10T13:51:48;21.70;96.90
11136;DHT22;5622;50.840;4.948;2022-07-10T13:54:16;21.70;96.70
11136;DHT22;5622;50.840;4.948;2022-07-10T13:56:43;21.80;96.50
11136;DHT22;5622;50.840;4.948;2022-07-10T13:59:11;21.80;95.90
11136;DHT22;5622;50.840;4.948;2022-07-10T14:01:38;21.80;96.70
11136;DHT22;5622;50.840;4.948;2022-07-10T14:04:05;21.80;97.00
11136;DHT22;5622;50.840;4.948;2022-07-10T14:06:32;21.90;96.40
11136;DHT22;5622;50.840;4.948;2022-07-10T14:08:59;21.90;96.40
11136;DHT22;5622;50.840;4.948;2022-07-10T14:11:28;21.90;96.10
11136;DHT22;5622;50.840;4.948;2022-07-10T14:13:55;22.00;96.90
11136;DHT22;5622;50.840;4.948;2022-07-10T14:16:22;22.00;96.00
11136;DHT22;5622;50.840;4.948;2022-07-10T14:18:49;22.10;96.30
11136;DHT22;5622;50.840;4.948;2022-07-10T14:21:17;22.10;96.40
11136;DHT22;5622;50.840;4.948;2022-07-10T14:23:44;22.10;96.80
11136;DHT22;5622;50.840;4.948;2022-07-10T14:26:11;22.20;96.30
11136;DHT22;5622;50.840;4.948;2022-07-10T14:28:40;22.20;96.00
11136;DHT22;5622;50.840;4.948;2022-07-10T14:31:08;22.20;96.60
11136;DHT22;5622;50.840;4.948;2022-07-10T14:33:35;22.20;96.60
11136;DHT22;5622;50.840;4.948;2022-07-10T14:36:03;22.20;96.30
11136;DHT22;5622;50.840;4.948;2022-07-10T14:38:30;22.30;96.00
11136;DHT22;5622;50.840;4.948;2022-07-10T14:40:59;22.30;96.50
11136;DHT22;5622;50.840;4.948;2022-07-10T14:43:26;22.30;95.80
11136;DHT22;5622;50.840;4.948;2022-07-10T14:45:55;22.30;95.70
11136;DHT22;5622;50.840;4.948;2022-07-10T14:48:22;22.30;95.50
11136;DHT22;5622;50.840;4.948;2022-07-10T14:50:49;22.30;95.60
11136;DHT22;5622;50.840;4.948;2022-07-10T14:53:16;22.30;95.70
11136;DHT22;5622;50.840;4.948;2022-07-10T14:55:43;22.40;95.70
11136;DHT22;5622;50.840;4.948;2022-07-10T14:58:10;22.40;95.90
11136;DHT22;5622;50.840;4.948;2022-07-10T15:00:37;22.50;96.30
11136;DHT22;5622;50.840;4.948;2022-07-10T15:03:06;22.50;95.90
11136;DHT22;5622;50.840;4.948;2022-07-10T15:05:33;22.60;95.10
11136;DHT22;5622;50.840;4.948;2022-07-10T15:08:00;22.70;95.20
11136;DHT22;5622;50.840;4.948;2022-07-10T15:10:28;22.70;95.40
11136;DHT22;5622;50.840;4.948;2022-07-10T15:12:55;22.70;95.30
11136;DHT22;5622;50.840;4.948;2022-07-10T15:15:22;22.70;95.20
11136;DHT22;5622;50.840;4.948;2022-07-10T15:17:49;22.70;95.40
11136;DHT22;5622;50.840;4.948;2022-07-10T15:20:18;22.60;95.30
11136;DHT22;5622;50.840;4.948;2022-07-10T15:22:45;22.60;95.10
11136;DHT22;5622;50.840;4.948;2022-07-10T15:25:12;22.60;94.90
11136;DHT22;5622;50.840;4.948;2022-07-10T15:27:40;22.60;95.30
11136;DHT22;5622;50.840;4.948;2022-07-10T15:30:08;22.60;95.70
11136;DHT22;5622;50.840;4.948;2022-07-10T15:32:37;22.60;95.60
11136;DHT22;5622;50.840;4.948;2022-07-10T15:35:05;22.60;95.50
11136;DHT22;5622;50.840;4.948;2022-07-10T15:37:34;22.50;95.40
11136;DHT22;5622;50.840;4.948;2022-07-10T15:40:02;22.60;95.50
11136;DHT22;5622;50.840;4.948;2022-07-10T15:42:29;22.60;95.50
11136;DHT22;5622;50.840;4.948;2022-07-10T15:44:56;22.50;95.60
11136;DHT22;5622;50.840;4.948;2022-07-10T15:47:24;22.60;95.60
11136;DHT22;5622;50.840;4.948;2022-07-10T15:49:51;22.60;95.80
11136;DHT22;5622;50.840;4.948;2022-07-10T15:52:18;22.60;96.20
11136;DHT22;5622;50.840;4.948;2022-07-10T15:54:47;22.60;96.00
11136;DHT22;5622;50.840;4.948;2022-07-10T15:57:14;22.60;95.70
11136;DHT22;5622;50.840;4.948;2022-07-10T15:59:41;22.60;95.30
11136;DHT22;5622;50.840;4.948;2022-07-10T16:02:08;22.60;95.30